sensor_id;sensor_type;location;lat;lon;timestamp;P1;durP1;ratioP1;P2;durP2;ratioP2
4122;SDS011;2075;51.062;6.920;2022-07-29T00:01:14;4.77;;;2.07;;
4122;SDS011;2075;51.062;6.920;2022-07-29T00:03:59;4.83;;;2.40;;
4122;SDS011;2075;51.062;6.920;2022-07-29T00:06:46;5.43;;;2.00;;
4122;SDS011;2075;51.062;6.920;2022-07-29T00:09:32;6.80;;;3.37;;
4122;SDS011;2075;51.062;6.920;2022-07-29T00:12:18;5.43;;;2.60;;
4122;SDS011;2075;51.062;6.920;2022-07-29T00:15:04;3.63;;;2.40;;
4122;SDS011;2075;51.062;6.920;2022-07-29T00:17:50;5.87;;;2.00;;
4122;SDS011;2075;51.062;6.920;2022-07-29T00:20:36;4.20;;;2.50;;
4122;SDS011;2075;51.062;6.920;2022-07-29T00:23:23;4.00;;;2.07;;
4122;SDS011;2075;51.062;6.920;2022-07-29T00:26:08;6.17;;;2.20;;
4122;SDS011;2075;51.062;6.920;2022-07-29T00:28:54;2.70;;;2.37;;
4122;SDS011;2075;51.062;6.920;2022-07-29T00:31:39;8.73;;;2.20;;
4122;SDS011;2075;51.062;6.920;2022-07-29T00:34:25;6.33;;;2.10;;
4122;SDS011;2075;51.062;6.920;2022-07-29T00:37:28;5.00;;;2.00;;
4122;SDS011;2075;51.062;6.920;2022-07-29T00:40:15;2.40;;;2.20;;
4122;SDS011;2075;51.062;6.920;2022-07-29T00:43:00;5.27;;;2.33;;
4122;SDS011;2075;51.062;6.920;2022-07-29T00:45:45;10.90;;;2.23;;
4122;SDS011;2075;51.062;6.920;2022-07-29T00:48:31;7.20;;;2.27;;
4122;SDS011;2075;51.062;6.920;2022-07-29T00:51:17;13.27;;;2.13;;
4122;SDS011;2075;51.062;6.920;2022-07-29T00:54:02;14.40;;;2.70;;
4122;SDS011;2075;51.062;6.920;2022-07-29T00:56:50;2.57;;;2.27;;
4122;SDS011;2075;51.062;6.920;2022-07-29T00:59:36;14.93;;;2.60;;
4122;SDS011;2075;51.062;6.920;2022-07-29T01:02:21;4.90;;;2.20;;
4122;SDS011;2075;51.062;6.920;2022-07-29T01:05:07;5.93;;;2.00;;
4122;SDS011;2075;51.062;6.920;2022-07-29T01:07:53;2.53;;;2.07;;
4122;SDS011;2075;51.062;6.920;2022-07-29T01:10:39;3.70;;;2.40;;
4122;SDS011;2075;51.062;6.920;2022-07-29T01:13:28;10.13;;;2.07;;
4122;SDS011;2075;51.062;6.920;2022-07-29T01:16:18;2.50;;;2.30;;
4122;SDS011;2075;51.062;6.920;2022-07-29T01:19:13;5.37;;;3.07;;
4122;SDS011;2075;51.062;6.920;2022-07-29T01:22:14;6.43;;;2.27;;
4122;SDS011;2075;51.062;6.920;2022-07-29T01:25:26;5.37;;;2.27;;
4122;SDS011;2075;51.062;6.920;2022-07-29T01:28:47;4.60;;;1.93;;
4122;SDS011;2075;51.062;6.920;2022-07-29T01:31:45;7.37;;;2.00;;
4122;SDS011;2075;51.062;6.920;2022-07-29T01:34:38;8.53;;;2.20;;
4122;SDS011;2075;51.062;6.920;2022-07-29T01:37:33;1.90;;;1.80;;
4122;SDS011;2075;51.062;6.920;2022-07-29T01:40:25;3.60;;;2.43;;
4122;SDS011;2075;51.062;6.920;2022-07-29T01:43:18;6.83;;;2.07;;
4122;SDS011;2075;51.062;6.920;2022-07-29T01:46:11;7.30;;;2.27;;
4122;SDS011;2075;51.062;6.920;2022-07-29T01:49:00;5.03;;;2.20;;
4122;SDS011;2075;51.062;6.920;2022-07-29T01:51:52;4.73;;;2.20;;
4122;SDS011;2075;51.062;6.920;2022-07-29T01:54:43;9.03;;;2.30;;
4122;SDS011;2075;51.062;6.920;2022-07-29T01:57:33;4.80;;;2.30;;
4122;SDS011;2075;51.062;6.920;2022-07-29T02:00:22;6.33;;;2.13;;
4122;SDS011;2075;51.062;6.920;2022-07-29T02:03:11;3.80;;;2.30;;
4122;SDS011;2075;51.062;6.920;2022-07-29T02:05:57;2.70;;;1.70;;
4122;SDS011;2075;51.062;6.920;2022-07-29T02:08:46;2.90;;;2.60;;
4122;SDS011;2075;51.062;6.920;2022-07-29T02:11:34;4.27;;;2.20;;
4122;SDS011;2075;51.062;6.920;2022-07-29T02:14:22;5.37;;;2.03;;
4122;SDS011;2075;51.062;6.920;2022-07-29T02:17:08;6.80;;;2.80;;
4122;SDS011;2075;51.062;6.920;2022-07-29T02:19:57;4.60;;;2.17;;
4122;SDS011;2075;51.062;6.920;2022-07-29T02:22:45;1.90;;;1.80;;
4122;SDS011;2075;51.062;6.920;2022-07-29T02:25:34;3.47;;;2.20;;
4122;SDS011;2075;51.062;6.920;2022-07-29T02:28:20;8.87;;;2.00;;
4122;SDS011;2075;51.062;6.920;2022-07-29T02:31:08;5.40;;;2.17;;
4122;SDS011;2075;51.062;6.920;2022-07-29T02:33:54;4.80;;;2.70;;
4122;SDS011;2075;51.062;6.920;2022-07-29T02:36:43;5.33;;;2.30;;
4122;SDS011;2075;51.062;6.920;2022-07-29T02:39:30;8.40;;;2.43;;
4122;SDS011;2075;51.062;6.920;2022-07-29T02:42:17;2.43;;;2.23;;
4122;SDS011;2075;51.062;6.920;2022-07-29T02:45:06;3.33;;;2.40;;
4122;SDS011;2075;51.062;6.920;2022-07-29T02:47:51;6.10;;;2.80;;
4122;SDS011;2075;51.062;6.920;2022-07-29T02:50:41;2.97;;;2.20;;
4122;SDS011;2075;51.062;6.920;2022-07-29T02:53:34;4.60;;;2.53;;
4122;SDS011;2075;51.062;6.920;2022-07-29T02:56:23;4.03;;;1.93;;
4122;SDS011;2075;51.062;6.920;2022-07-29T02:59:12;9.70;;;2.37;;
4122;SDS011;2075;51.062;6.920;2022-07-29T03:02:02;2.73;;;2.33;;
4122;SDS011;2075;51.062;6.920;2022-07-29T03:04:49;7.80;;;3.13;;
4122;SDS011;2075;51.062;6.920;2022-07-29T03:07:37;18.60;;;2.53;;
4122;SDS011;2075;51.062;6.920;2022-07-29T03:10:26;10.13;;;2.73;;
4122;SDS011;2075;51.062;6.920;2022-07-29T03:13:12;15.37;;;2.60;;
4122;SDS011;2075;51.062;6.920;2022-07-29T03:15:58;3.60;;;2.13;;
4122;SDS011;2075;51.062;6.920;2022-07-29T03:18:44;7.33;;;2.37;;
4122;SDS011;2075;51.062;6.920;2022-07-29T03:21:29;4.83;;;2.47;;
4122;SDS011;2075;51.062;6.920;2022-07-29T03:24:28;6.60;;;2.40;;
4122;SDS011;2075;51.062;6.920;2022-07-29T03:27:16;2.83;;;2.47;;
4122;SDS011;2075;51.062;6.920;2022-07-29T03:30:02;11.20;;;2.13;;
4122;SDS011;2075;51.062;6.920;2022-07-29T03:32:48;2.80;;;2.60;;
4122;SDS011;2075;51.062;6.920;2022-07-29T03:35:34;3.03;;;2.70;;
4122;SDS011;2075;51.062;6.920;2022-07-29T03:38:20;7.57;;;3.37;;
4122;SDS011;2075;51.062;6.920;2022-07-29T03:41:10;4.20;;;2.80;;
4122;SDS011;2075;51.062;6.920;2022-07-29T03:43:59;6.50;;;3.07;;
4122;SDS011;2075;51.062;6.920;2022-07-29T03:46:45;3.67;;;2.87;;
4122;SDS011;2075;51.062;6.920;2022-07-29T03:49:35;4.10;;;3.03;;
4122;SDS011;2075;51.062;6.920;2022-07-29T03:52:22;4.83;;;3.20;;
4122;SDS011;2075;51.062;6.920;2022-07-29T03:55:08;7.40;;;2.70;;
4122;SDS011;2075;51.062;6.920;2022-07-29T03:57:54;5.20;;;2.60;;
4122;SDS011;2075;51.062;6.920;2022-07-29T04:00:43;6.57;;;3.30;;
4122;SDS011;2075;51.062;6.920;2022-07-29T04:03:29;5.93;;;2.73;;
4122;SDS011;2075;51.062;6.920;2022-07-29T04:06:15;5.20;;;2.60;;
4122;SDS011;2075;51.062;6.920;2022-07-29T04:09:00;6.43;;;4.10;;
4122;SDS011;2075;51.062;6.920;2022-07-29T04:11:46;5.67;;;2.47;;
4122;SDS011;2075;51.062;6.920;2022-07-29T04:14:31;10.80;;;3.00;;
4122;SDS011;2075;51.062;6.920;2022-07-29T04:17:18;11.70;;;3.10;;
4122;SDS011;2075;51.062;6.920;2022-07-29T04:20:04;14.53;;;3.03;;
4122;SDS011;2075;51.062;6.920;2022-07-29T04:22:50;3.43;;;2.43;;
4122;SDS011;2075;51.062;6.920;2022-07-29T04:25:36;8.70;;;2.97;;
4122;SDS011;2075;51.062;6.920;2022-07-29T04:28:23;4.90;;;2.43;;
4122;SDS011;2075;51.062;6.920;2022-07-29T04:31:09;4.60;;;2.60;;
4122;SDS011;2075;51.062;6.920;2022-07-29T04:33:57;5.43;;;2.67;;
4122;SDS011;2075;51.062;6.920;2022-07-29T04:36:42;6.90;;;2.87;;
4122;SDS011;2075;51.062;6.920;2022-07-29T04:39:28;13.17;;;2.73;;
4122;SDS011;2075;51.062;6.920;2022-07-29T04:42:13;8.50;;;2.87;;
4122;SDS011;2075;51.062;6.920;2022-07-29T04:44:59;6.97;;;2.83;;
4122;SDS011;2075;51.062;6.920;2022-07-29T04:47:44;5.57;;;2.23;;
4122;SDS011;2075;51.062;6.920;2022-07-29T04:50:31;6.60;;;2.20;;
4122;SDS011;2075;51.062;6.920;2022-07-29T04:53:17;9.03;;;2.13;;
4122;SDS011;2075;51.062;6.920;2022-07-29T04:56:03;3.30;;;2.17;;
4122;SDS011;2075;51.062;6.920;2022-07-29T04:58:49;8.63;;;2.43;;
4122;SDS011;2075;51.062;6.920;2022-07-29T05:01:34;9.73;;;2.20;;
4122;SDS011;2075;51.062;6.920;2022-07-29T05:04:20;8.63;;;2.07;;
4122;SDS011;2075;51.062;6.920;2022-07-29T05:07:08;10.23;;;2.37;;
4122;SDS011;2075;51.062;6.920;2022-07-29T05:09:53;10.30;;;2.40;;
4122;SDS011;2075;51.062;6.920;2022-07-29T05:12:40;11.30;;;2.63;;
4122;SDS011;2075;51.062;6.920;2022-07-29T05:15:26;5.80;;;3.00;;
4122;SDS011;2075;51.062;6.920;2022-07-29T05:18:11;5.27;;;2.70;;
4122;SDS011;2075;51.062;6.920;2022-07-29T05:20:58;9.60;;;2.67;;
4122;SDS011;2075;51.062;6.920;2022-07-29T05:23:45;10.60;;;2.50;;
4122;SDS011;2075;51.062;6.920;2022-07-29T05:26:30;5.07;;;2.27;;
4122;SDS011;2075;51.062;6.920;2022-07-29T05:29:16;8.40;;;3.87;;
4122;SDS011;2075;51.062;6.920;2022-07-29T05:32:01;6.30;;;2.13;;
4122;SDS011;2075;51.062;6.920;2022-07-29T05:34:47;8.33;;;2.60;;
4122;SDS011;2075;51.062;6.920;2022-07-29T05:37:33;4.70;;;2.17;;
4122;SDS011;2075;51.062;6.920;2022-07-29T05:40:21;7.27;;;2.10;;
4122;SDS011;2075;51.062;6.920;2022-07-29T05:43:06;3.60;;;2.40;;
4122;SDS011;2075;51.062;6.920;2022-07-29T05:45:52;4.23;;;2.07;;
4122;SDS011;2075;51.062;6.920;2022-07-29T05:48:37;5.30;;;2.20;;
4122;SDS011;2075;51.062;6.920;2022-07-29T05:51:23;3.53;;;2.40;;
4122;SDS011;2075;51.062;6.920;2022-07-29T05:54:09;5.10;;;2.50;;
4122;SDS011;2075;51.062;6.920;2022-07-29T05:56:56;9.50;;;2.43;;
4122;SDS011;2075;51.062;6.920;2022-07-29T05:59:41;5.93;;;2.33;;
4122;SDS011;2075;51.062;6.920;2022-07-29T06:02:26;5.40;;;2.40;;
4122;SDS011;2075;51.062;6.920;2022-07-29T06:05:12;6.37;;;2.53;;
4122;SDS011;2075;51.062;6.920;2022-07-29T06:07:59;7.97;;;2.30;;
4122;SDS011;2075;51.062;6.920;2022-07-29T06:10:44;9.50;;;2.23;;
4122;SDS011;2075;51.062;6.920;2022-07-29T06:13:32;5.93;;;2.50;;
4122;SDS011;2075;51.062;6.920;2022-07-29T06:16:17;8.07;;;2.10;;
4122;SDS011;2075;51.062;6.920;2022-07-29T06:19:02;6.37;;;2.70;;
4122;SDS011;2075;51.062;6.920;2022-07-29T06:21:48;4.20;;;2.97;;
4122;SDS011;2075;51.062;6.920;2022-07-29T06:24:34;6.60;;;2.50;;
4122;SDS011;2075;51.062;6.920;2022-07-29T06:27:23;5.17;;;2.40;;
4122;SDS011;2075;51.062;6.920;2022-07-29T06:30:10;5.60;;;2.13;;
4122;SDS011;2075;51.062;6.920;2022-07-29T06:32:56;15.67;;;2.80;;
4122;SDS011;2075;51.062;6.920;2022-07-29T06:35:42;5.80;;;2.47;;
4122;SDS011;2075;51.062;6.920;2022-07-29T06:38:28;2.33;;;2.13;;
4122;SDS011;2075;51.062;6.920;2022-07-29T06:41:13;4.40;;;2.40;;
4122;SDS011;2075;51.062;6.920;2022-07-29T06:43:59;3.07;;;2.13;;
4122;SDS011;2075;51.062;6.920;2022-07-29T06:46:46;5.83;;;2.57;;
4122;SDS011;2075;51.062;6.920;2022-07-29T06:49:33;8.00;;;5.40;;
4122;SDS011;2075;51.062;6.920;2022-07-29T06:52:19;5.10;;;2.70;;
4122;SDS011;2075;51.062;6.920;2022-07-29T06:55:05;14.67;;;2.57;;
4122;SDS011;2075;51.062;6.920;2022-07-29T06:57:51;9.77;;;2.33;;
4122;SDS011;2075;51.062;6.920;2022-07-29T07:00:37;6.43;;;2.60;;
4122;SDS011;2075;51.062;6.920;2022-07-29T07:03:24;3.13;;;2.13;;
4122;SDS011;2075;51.062;6.920;2022-07-29T07:06:09;5.10;;;2.57;;
4122;SDS011;2075;51.062;6.920;2022-07-29T07:08:55;7.30;;;2.50;;
4122;SDS011;2075;51.062;6.920;2022-07-29T07:11:40;13.93;;;3.47;;
4122;SDS011;2075;51.062;6.920;2022-07-29T07:14:26;7.10;;;2.50;;
4122;SDS011;2075;51.062;6.920;2022-07-29T07:17:11;9.67;;;2.70;;
4122;SDS011;2075;51.062;6.920;2022-07-29T07:19:58;9.83;;;2.77;;
4122;SDS011;2075;51.062;6.920;2022-07-29T07:22:44;10.30;;;3.00;;
4122;SDS011;2075;51.062;6.920;2022-07-29T07:25:30;5.10;;;2.50;;
4122;SDS011;2075;51.062;6.920;2022-07-29T07:28:15;20.50;;;9.60;;
4122;SDS011;2075;51.062;6.920;2022-07-29T07:31:01;11.80;;;4.90;;
4122;SDS011;2075;51.062;6.920;2022-07-29T07:33:47;7.67;;;4.00;;
4122;SDS011;2075;51.062;6.920;2022-07-29T07:36:34;7.23;;;3.63;;
4122;SDS011;2075;51.062;6.920;2022-07-29T07:39:20;12.53;;;3.40;;
4122;SDS011;2075;51.062;6.920;2022-07-29T07:42:05;10.47;;;2.73;;
4122;SDS011;2075;51.062;6.920;2022-07-29T07:44:51;4.90;;;2.70;;
4122;SDS011;2075;51.062;6.920;2022-07-29T07:47:37;5.50;;;2.63;;
4122;SDS011;2075;51.062;6.920;2022-07-29T07:50:25;7.43;;;3.00;;
4122;SDS011;2075;51.062;6.920;2022-07-29T07:53:12;3.87;;;3.10;;
4122;SDS011;2075;51.062;6.920;2022-07-29T07:55:58;3.33;;;3.00;;
4122;SDS011;2075;51.062;6.920;2022-07-29T07:58:43;4.43;;;3.03;;
4122;SDS011;2075;51.062;6.920;2022-07-29T08:01:29;5.10;;;3.30;;
4122;SDS011;2075;51.062;6.920;2022-07-29T08:04:14;8.50;;;3.90;;
4122;SDS011;2075;51.062;6.920;2022-07-29T08:07:01;9.97;;;3.27;;
4122;SDS011;2075;51.062;6.920;2022-07-29T08:09:48;6.20;;;3.20;;
4122;SDS011;2075;51.062;6.920;2022-07-29T08:12:34;4.47;;;2.63;;
4122;SDS011;2075;51.062;6.920;2022-07-29T08:15:20;11.03;;;3.17;;
4122;SDS011;2075;51.062;6.920;2022-07-29T08:18:05;5.03;;;2.93;;
4122;SDS011;2075;51.062;6.920;2022-07-29T08:20:51;4.77;;;2.87;;
4122;SDS011;2075;51.062;6.920;2022-07-29T08:23:36;7.50;;;3.20;;
4122;SDS011;2075;51.062;6.920;2022-07-29T08:26:24;4.80;;;3.20;;
4122;SDS011;2075;51.062;6.920;2022-07-29T08:29:10;7.20;;;3.97;;
4122;SDS011;2075;51.062;6.920;2022-07-29T08:31:56;8.80;;;3.30;;
4122;SDS011;2075;51.062;6.920;2022-07-29T08:34:41;4.57;;;3.30;;
4122;SDS011;2075;51.062;6.920;2022-07-29T08:37:29;11.10;;;3.47;;
4122;SDS011;2075;51.062;6.920;2022-07-29T08:40:15;4.50;;;3.40;;
4122;SDS011;2075;51.062;6.920;2022-07-29T08:43:05;8.13;;;3.40;;
4122;SDS011;2075;51.062;6.920;2022-07-29T08:45:51;6.20;;;3.60;;
4122;SDS011;2075;51.062;6.920;2022-07-29T08:48:37;7.70;;;3.90;;
4122;SDS011;2075;51.062;6.920;2022-07-29T08:51:23;8.80;;;3.73;;
4122;SDS011;2075;51.062;6.920;2022-07-29T08:54:11;6.00;;;3.80;;
4122;SDS011;2075;51.062;6.920;2022-07-29T08:57:02;8.67;;;3.37;;
4122;SDS011;2075;51.062;6.920;2022-07-29T08:59:50;4.23;;;3.30;;
4122;SDS011;2075;51.062;6.920;2022-07-29T09:02:39;12.87;;;4.50;;
4122;SDS011;2075;51.062;6.920;2022-07-29T09:05:26;4.40;;;3.87;;
4122;SDS011;2075;51.062;6.920;2022-07-29T09:08:12;8.93;;;3.77;;
4122;SDS011;2075;51.062;6.920;2022-07-29T09:11:00;4.40;;;4.00;;
4122;SDS011;2075;51.062;6.920;2022-07-29T09:13:47;10.17;;;3.63;;
4122;SDS011;2075;51.062;6.920;2022-07-29T09:16:48;5.40;;;4.00;;
4122;SDS011;2075;51.062;6.920;2022-07-29T09:19:36;5.73;;;4.70;;
4122;SDS011;2075;51.062;6.920;2022-07-29T09:22:28;6.23;;;3.50;;
4122;SDS011;2075;51.062;6.920;2022-07-29T09:25:15;20.93;;;4.13;;
4122;SDS011;2075;51.062;6.920;2022-07-29T09:28:17;9.93;;;4.60;;
4122;SDS011;2075;51.062;6.920;2022-07-29T09:31:02;6.53;;;4.60;;
4122;SDS011;2075;51.062;6.920;2022-07-29T09:33:50;32.27;;;8.10;;
4122;SDS011;2075;51.062;6.920;2022-07-29T09:36:40;18.30;;;4.00;;
4122;SDS011;2075;51.062;6.920;2022-07-29T09:39:28;6.70;;;3.93;;
4122;SDS011;2075;51.062;6.920;2022-07-29T09:42:16;15.87;;;4.70;;
4122;SDS011;2075;51.062;6.920;2022-07-29T09:45:13;6.17;;;4.53;;
4122;SDS011;2075;51.062;6.920;2022-07-29T09:48:13;8.57;;;4.33;;
4122;SDS011;2075;51.062;6.920;2022-07-29T09:51:02;12.17;;;4.70;;
4122;SDS011;2075;51.062;6.920;2022-07-29T09:53:49;13.10;;;4.20;;
4122;SDS011;2075;51.062;6.920;2022-07-29T09:56:38;9.67;;;4.00;;
4122;SDS011;2075;51.062;6.920;2022-07-29T09:59:24;6.57;;;4.30;;
4122;SDS011;2075;51.062;6.920;2022-07-29T10:02:11;15.30;;;4.20;;
4122;SDS011;2075;51.062;6.920;2022-07-29T10:04:57;10.50;;;4.57;;
4122;SDS011;2075;51.062;6.920;2022-07-29T10:07:46;7.93;;;4.63;;
4122;SDS011;2075;51.062;6.920;2022-07-29T10:10:33;7.17;;;4.40;;
4122;SDS011;2075;51.062;6.920;2022-07-29T10:13:23;12.87;;;5.33;;
4122;SDS011;2075;51.062;6.920;2022-07-29T10:16:11;11.33;;;4.53;;
4122;SDS011;2075;51.062;6.920;2022-07-29T10:18:58;18.37;;;4.83;;
4122;SDS011;2075;51.062;6.920;2022-07-29T10:21:44;17.53;;;4.87;;
4122;SDS011;2075;51.062;6.920;2022-07-29T10:24:32;10.17;;;4.77;;
4122;SDS011;2075;51.062;6.920;2022-07-29T10:27:19;11.23;;;4.30;;
4122;SDS011;2075;51.062;6.920;2022-07-29T10:30:05;10.67;;;4.00;;
4122;SDS011;2075;51.062;6.920;2022-07-29T10:32:59;7.23;;;3.57;;
4122;SDS011;2075;51.062;6.920;2022-07-29T10:36:17;8.27;;;4.10;;
4122;SDS011;2075;51.062;6.920;2022-07-29T10:39:12;7.37;;;4.10;;
4122;SDS011;2075;51.062;6.920;2022-07-29T10:42:16;9.70;;;4.90;;
4122;SDS011;2075;51.062;6.920;2022-07-29T10:45:04;6.83;;;4.17;;
4122;SDS011;2075;51.062;6.920;2022-07-29T10:48:02;4.70;;;3.77;;
4122;SDS011;2075;51.062;6.920;2022-07-29T10:50:52;8.47;;;4.00;;
4122;SDS011;2075;51.062;6.920;2022-07-29T10:53:46;4.83;;;3.93;;
4122;SDS011;2075;51.062;6.920;2022-07-29T10:56:33;8.10;;;3.70;;
4122;SDS011;2075;51.062;6.920;2022-07-29T10:59:24;8.83;;;4.97;;
4122;SDS011;2075;51.062;6.920;2022-07-29T11:05:27;6.00;;;4.67;;
4122;SDS011;2075;51.062;6.920;2022-07-29T11:08:33;8.93;;;4.90;;
4122;SDS011;2075;51.062;6.920;2022-07-29T11:14:30;8.10;;;3.80;;
4122;SDS011;2075;51.062;6.920;2022-07-29T11:20:51;6.17;;;3.90;;
4122;SDS011;2075;51.062;6.920;2022-07-29T11:23:38;5.17;;;3.77;;
4122;SDS011;2075;51.062;6.920;2022-07-29T11:26:25;6.40;;;3.23;;
4122;SDS011;2075;51.062;6.920;2022-07-29T11:29:16;6.33;;;3.10;;
4122;SDS011;2075;51.062;6.920;2022-07-29T11:32:10;4.90;;;3.10;;
4122;SDS011;2075;51.062;6.920;2022-07-29T11:38:24;9.50;;;3.70;;
4122;SDS011;2075;51.062;6.920;2022-07-29T11:41:24;10.03;;;3.77;;
4122;SDS011;2075;51.062;6.920;2022-07-29T11:44:11;7.43;;;3.50;;
4122;SDS011;2075;51.062;6.920;2022-07-29T11:46:59;7.47;;;3.87;;
4122;SDS011;2075;51.062;6.920;2022-07-29T11:49:46;5.03;;;3.20;;
4122;SDS011;2075;51.062;6.920;2022-07-29T11:52:34;7.10;;;3.30;;
4122;SDS011;2075;51.062;6.920;2022-07-29T11:55:26;4.83;;;2.70;;
4122;SDS011;2075;51.062;6.920;2022-07-29T11:58:12;8.77;;;3.40;;
4122;SDS011;2075;51.062;6.920;2022-07-29T12:00:57;9.13;;;3.80;;
4122;SDS011;2075;51.062;6.920;2022-07-29T12:03:44;5.30;;;2.90;;
4122;SDS011;2075;51.062;6.920;2022-07-29T12:06:31;9.20;;;3.10;;
4122;SDS011;2075;51.062;6.920;2022-07-29T12:09:17;3.90;;;2.77;;
4122;SDS011;2075;51.062;6.920;2022-07-29T12:12:04;3.33;;;2.70;;
4122;SDS011;2075;51.062;6.920;2022-07-29T12:14:50;3.07;;;2.80;;
4122;SDS011;2075;51.062;6.920;2022-07-29T12:17:36;7.50;;;3.10;;
4122;SDS011;2075;51.062;6.920;2022-07-29T12:20:23;6.07;;;3.07;;
4122;SDS011;2075;51.062;6.920;2022-07-29T12:23:11;5.93;;;2.90;;
4122;SDS011;2075;51.062;6.920;2022-07-29T12:25:58;3.33;;;2.67;;
4122;SDS011;2075;51.062;6.920;2022-07-29T12:28:44;4.73;;;2.70;;
4122;SDS011;2075;51.062;6.920;2022-07-29T12:31:30;6.23;;;3.17;;
4122;SDS011;2075;51.062;6.920;2022-07-29T12:34:15;5.10;;;2.80;;
4122;SDS011;2075;51.062;6.920;2022-07-29T12:37:01;4.23;;;2.97;;
4122;SDS011;2075;51.062;6.920;2022-07-29T12:39:48;3.53;;;2.70;;
4122;SDS011;2075;51.062;6.920;2022-07-29T12:42:35;8.70;;;2.90;;
4122;SDS011;2075;51.062;6.920;2022-07-29T12:45:27;3.87;;;2.83;;
4122;SDS011;2075;51.062;6.920;2022-07-29T12:48:13;8.33;;;2.90;;
4122;SDS011;2075;51.062;6.920;2022-07-29T12:51:00;5.53;;;2.87;;
4122;SDS011;2075;51.062;6.920;2022-07-29T12:54:02;7.20;;;2.93;;
4122;SDS011;2075;51.062;6.920;2022-07-29T12:56:58;3.90;;;2.80;;
4122;SDS011;2075;51.062;6.920;2022-07-29T12:59:44;4.50;;;2.80;;
4122;SDS011;2075;51.062;6.920;2022-07-29T13:02:30;18.73;;;2.60;;
4122;SDS011;2075;51.062;6.920;2022-07-29T13:05:15;5.03;;;2.93;;
4122;SDS011;2075;51.062;6.920;2022-07-29T13:08:09;12.80;;;3.33;;
4122;SDS011;2075;51.062;6.920;2022-07-29T13:10:56;9.70;;;4.90;;
4122;SDS011;2075;51.062;6.920;2022-07-29T13:13:50;16.33;;;4.10;;
4122;SDS011;2075;51.062;6.920;2022-07-29T13:16:36;11.53;;;3.90;;
4122;SDS011;2075;51.062;6.920;2022-07-29T13:19:51;6.00;;;3.77;;
4122;SDS011;2075;51.062;6.920;2022-07-29T13:22:39;12.37;;;4.60;;
4122;SDS011;2075;51.062;6.920;2022-07-29T13:25:26;8.50;;;4.63;;
4122;SDS011;2075;51.062;6.920;2022-07-29T13:28:13;9.73;;;5.03;;
4122;SDS011;2075;51.062;6.920;2022-07-29T13:30:59;6.60;;;4.10;;
4122;SDS011;2075;51.062;6.920;2022-07-29T13:33:46;7.13;;;4.00;;
4122;SDS011;2075;51.062;6.920;2022-07-29T13:36:32;7.30;;;4.37;;
4122;SDS011;2075;51.062;6.920;2022-07-29T13:39:17;9.93;;;5.00;;
4122;SDS011;2075;51.062;6.920;2022-07-29T13:42:03;10.37;;;4.07;;
4122;SDS011;2075;51.062;6.920;2022-07-29T13:44:48;6.70;;;3.97;;
4122;SDS011;2075;51.062;6.920;2022-07-29T13:47:35;7.83;;;4.50;;
4122;SDS011;2075;51.062;6.920;2022-07-29T13:50:22;10.83;;;4.70;;
4122;SDS011;2075;51.062;6.920;2022-07-29T13:53:08;12.43;;;4.70;;
4122;SDS011;2075;51.062;6.920;2022-07-29T13:55:54;12.43;;;4.90;;
4122;SDS011;2075;51.062;6.920;2022-07-29T13:58:39;11.60;;;4.60;;
4122;SDS011;2075;51.062;6.920;2022-07-29T14:01:25;6.83;;;4.80;;
4122;SDS011;2075;51.062;6.920;2022-07-29T14:04:11;5.47;;;3.83;;
4122;SDS011;2075;51.062;6.920;2022-07-29T14:06:58;9.27;;;4.40;;
4122;SDS011;2075;51.062;6.920;2022-07-29T14:09:43;8.90;;;4.37;;
4122;SDS011;2075;51.062;6.920;2022-07-29T14:12:29;8.90;;;4.33;;
4122;SDS011;2075;51.062;6.920;2022-07-29T14:15:15;6.07;;;3.90;;
4122;SDS011;2075;51.062;6.920;2022-07-29T14:18:01;8.00;;;3.60;;
4122;SDS011;2075;51.062;6.920;2022-07-29T14:20:46;13.73;;;4.07;;
4122;SDS011;2075;51.062;6.920;2022-07-29T14:23:33;8.10;;;4.07;;
4122;SDS011;2075;51.062;6.920;2022-07-29T14:26:19;11.23;;;4.83;;
4122;SDS011;2075;51.062;6.920;2022-07-29T14:29:04;10.87;;;4.60;;
4122;SDS011;2075;51.062;6.920;2022-07-29T14:31:50;4.20;;;3.47;;
4122;SDS011;2075;51.062;6.920;2022-07-29T14:34:36;8.23;;;4.17;;
4122;SDS011;2075;51.062;6.920;2022-07-29T14:37:22;10.20;;;4.17;;
4122;SDS011;2075;51.062;6.920;2022-07-29T14:40:09;10.40;;;3.80;;
4122;SDS011;2075;51.062;6.920;2022-07-29T14:42:55;8.13;;;3.70;;
4122;SDS011;2075;51.062;6.920;2022-07-29T14:45:41;5.03;;;3.30;;
4122;SDS011;2075;51.062;6.920;2022-07-29T14:48:27;8.00;;;3.47;;
4122;SDS011;2075;51.062;6.920;2022-07-29T14:51:12;4.77;;;3.20;;
4122;SDS011;2075;51.062;6.920;2022-07-29T14:53:58;9.00;;;3.80;;
4122;SDS011;2075;51.062;6.920;2022-07-29T14:56:45;7.03;;;3.40;;
4122;SDS011;2075;51.062;6.920;2022-07-29T14:59:32;6.97;;;3.57;;
4122;SDS011;2075;51.062;6.920;2022-07-29T15:02:20;7.53;;;3.57;;
4122;SDS011;2075;51.062;6.920;2022-07-29T15:05:06;8.13;;;3.60;;
4122;SDS011;2075;51.062;6.920;2022-07-29T15:07:52;5.23;;;3.60;;
4122;SDS011;2075;51.062;6.920;2022-07-29T15:10:38;12.17;;;3.27;;
4122;SDS011;2075;51.062;6.920;2022-07-29T15:13:25;16.27;;;3.90;;
4122;SDS011;2075;51.062;6.920;2022-07-29T15:16:11;10.03;;;3.60;;
4122;SDS011;2075;51.062;6.920;2022-07-29T15:18:56;8.47;;;3.73;;
4122;SDS011;2075;51.062;6.920;2022-07-29T15:21:42;7.50;;;3.10;;
4122;SDS011;2075;51.062;6.920;2022-07-29T15:24:27;4.83;;;3.03;;
4122;SDS011;2075;51.062;6.920;2022-07-29T15:27:13;5.70;;;2.60;;
4122;SDS011;2075;51.062;6.920;2022-07-29T15:30:00;7.73;;;3.33;;
4122;SDS011;2075;51.062;6.920;2022-07-29T15:32:45;10.93;;;3.80;;
4122;SDS011;2075;51.062;6.920;2022-07-29T15:35:31;4.70;;;3.60;;
4122;SDS011;2075;51.062;6.920;2022-07-29T15:38:16;9.90;;;3.77;;
4122;SDS011;2075;51.062;6.920;2022-07-29T15:41:01;10.83;;;3.90;;
4122;SDS011;2075;51.062;6.920;2022-07-29T15:43:47;8.07;;;3.60;;
4122;SDS011;2075;51.062;6.920;2022-07-29T15:46:34;12.10;;;3.90;;
4122;SDS011;2075;51.062;6.920;2022-07-29T15:49:38;6.63;;;3.37;;
4122;SDS011;2075;51.062;6.920;2022-07-29T15:52:25;8.00;;;3.40;;
4122;SDS011;2075;51.062;6.920;2022-07-29T15:55:10;5.40;;;3.03;;
4122;SDS011;2075;51.062;6.920;2022-07-29T15:57:56;6.93;;;3.27;;
4122;SDS011;2075;51.062;6.920;2022-07-29T16:00:41;4.73;;;2.80;;
4122;SDS011;2075;51.062;6.920;2022-07-29T16:03:28;6.63;;;3.40;;
4122;SDS011;2075;51.062;6.920;2022-07-29T16:06:14;8.33;;;3.00;;
4122;SDS011;2075;51.062;6.920;2022-07-29T16:08:59;7.30;;;4.03;;
4122;SDS011;2075;51.062;6.920;2022-07-29T16:11:45;7.57;;;3.50;;
4122;SDS011;2075;51.062;6.920;2022-07-29T16:14:33;9.63;;;3.73;;
4122;SDS011;2075;51.062;6.920;2022-07-29T16:17:19;9.77;;;4.10;;
4122;SDS011;2075;51.062;6.920;2022-07-29T16:20:06;9.50;;;4.30;;
4122;SDS011;2075;51.062;6.920;2022-07-29T16:22:52;3.40;;;2.90;;
4122;SDS011;2075;51.062;6.920;2022-07-29T16:25:38;4.80;;;3.10;;
4122;SDS011;2075;51.062;6.920;2022-07-29T16:28:23;3.97;;;2.80;;
4122;SDS011;2075;51.062;6.920;2022-07-29T16:31:09;5.20;;;3.33;;
4122;SDS011;2075;51.062;6.920;2022-07-29T16:33:54;6.67;;;2.90;;
4122;SDS011;2075;51.062;6.920;2022-07-29T16:36:41;10.57;;;3.00;;
4122;SDS011;2075;51.062;6.920;2022-07-29T16:39:27;4.00;;;3.60;;
4122;SDS011;2075;51.062;6.920;2022-07-29T16:42:12;8.80;;;3.13;;
4122;SDS011;2075;51.062;6.920;2022-07-29T16:44:57;4.87;;;2.97;;
4122;SDS011;2075;51.062;6.920;2022-07-29T16:47:43;8.33;;;2.93;;
4122;SDS011;2075;51.062;6.920;2022-07-29T16:50:28;5.93;;;2.97;;
4122;SDS011;2075;51.062;6.920;2022-07-29T16:53:15;3.33;;;3.03;;
4122;SDS011;2075;51.062;6.920;2022-07-29T16:56:00;4.47;;;2.80;;
4122;SDS011;2075;51.062;6.920;2022-07-29T16:58:46;7.53;;;3.37;;
4122;SDS011;2075;51.062;6.920;2022-07-29T17:01:31;3.73;;;3.40;;
4122;SDS011;2075;51.062;6.920;2022-07-29T17:04:16;5.20;;;3.70;;
4122;SDS011;2075;51.062;6.920;2022-07-29T17:07:02;11.60;;;4.20;;
4122;SDS011;2075;51.062;6.920;2022-07-29T17:09:52;9.37;;;3.77;;
4122;SDS011;2075;51.062;6.920;2022-07-29T17:12:37;7.70;;;3.10;;
4122;SDS011;2075;51.062;6.920;2022-07-29T17:15:24;11.73;;;3.20;;
4122;SDS011;2075;51.062;6.920;2022-07-29T17:18:09;6.63;;;3.00;;
4122;SDS011;2075;51.062;6.920;2022-07-29T17:20:55;9.93;;;4.37;;
4122;SDS011;2075;51.062;6.920;2022-07-29T17:23:41;6.20;;;2.80;;
4122;SDS011;2075;51.062;6.920;2022-07-29T17:26:27;5.33;;;3.47;;
4122;SDS011;2075;51.062;6.920;2022-07-29T17:29:13;3.90;;;3.40;;
4122;SDS011;2075;51.062;6.920;2022-07-29T17:31:58;10.17;;;3.17;;